Time;durP1;ratioP1;P1;durP2;ratioP2;P2;SDS_P1;SDS_P2;PMS_P1;PMS_P2;Temp;Humidity;BMP_temperature;BMP_pressure;BME280_temperature;BME280_humidity;BME280_pressure;Samples;Min_cycle;Max_cycle;Signal;HPM_P1;HPM_P2
2022/10/25 00:01:40;;;;;;;8.48;4.20;;;;;;;12.86;88.20;100350.69;1751292;82;21059;-78
2022/10/25 00:04:07;;;;;;;6.90;4.20;;;;;;;12.89;88.45;100352.33;1750919;82;22123;-72
2022/10/25 00:06:34;;;;;;;9.78;4.90;;;;;;;12.91;88.61;100351.77;1751472;82;21507;-72
2022/10/25 00:09:01;;;;;;;12.25;4.30;;;;;;;12.95;88.62;100358.60;1751440;82;21371;-72
2022/10/25 00:11:31;;;;;;;11.83;4.00;;;;;;;12.98;88.75;100361.09;1751468;82;20994;-71
2022/10/25 00:14:02;;;;;;;7.97;4.10;;;;;;;13.00;88.77;100359.67;1751221;82;21505;-71
2022/10/25 00:16:36;;;;;;;9.60;4.00;;;;;;;13.04;88.88;100358.16;1751267;82;21984;-71
2022/10/25 00:19:05;;;;;;;6.50;3.40;;;;;;;13.07;88.83;100365.89;1751283;82;21081;-72
2022/10/25 00:21:32;;;;;;;9.23;4.10;;;;;;;13.10;88.80;100371.01;1751353;82;21020;-72
2022/10/25 00:24:00;;;;;;;9.33;3.65;;;;;;;13.11;88.82;100366.63;1751328;82;21017;-71
2022/10/25 00:26:27;;;;;;;11.65;4.12;;;;;;;13.14;88.89;100370.42;1751322;82;21076;-72
2022/10/25 00:28:55;;;;;;;9.85;3.60;;;;;;;13.16;88.83;100372.49;1751326;82;21794;-71
2022/10/25 00:31:23;;;;;;;8.53;3.65;;;;;;;13.18;88.86;100373.28;1751268;82;21009;-72
2022/10/25 00:33:51;;;;;;;7.10;3.80;;;;;;;13.21;88.91;100374.91;1751338;82;21005;-72
2022/10/25 00:36:23;;;;;;;7.87;3.30;;;;;;;13.23;88.75;100374.38;1751317;82;20989;-72
2022/10/25 00:38:52;;;;;;;9.28;3.47;;;;;;;13.22;88.70;100368.27;1751636;82;20981;-72
2022/10/25 00:41:24;;;;;;;8.05;3.22;;;;;;;13.21;88.68;100368.33;1751281;82;21803;-71
2022/10/25 00:43:54;;;;;;;7.58;3.58;;;;;;;13.18;88.61;100366.23;1751452;82;22028;-71
2022/10/25 00:46:28;;;;;;;8.63;3.15;;;;;;;13.16;88.61;100363.28;1751240;82;20976;-74
2022/10/25 00:49:06;;;;;;;9.63;3.40;;;;;;;13.13;88.62;100369.55;1734802;81;20985;-72
2022/10/25 00:51:40;;;;;;;5.90;3.12;;;;;;;13.13;88.69;100362.12;1730719;82;20996;-72
2022/10/25 00:54:10;;;;;;;5.25;3.12;;;;;;;13.12;88.79;100363.05;1730668;82;21120;-71
2022/10/25 00:56:41;;;;;;;6.50;3.20;;;;;;;13.13;89.07;100367.38;1731123;82;20973;-72
2022/10/25 00:59:12;;;;;;;8.10;3.83;;;;;;;13.16;89.13;100365.48;1730722;82;21498;-72
2022/10/25 01:01:40;;;;;;;6.33;3.35;;;;;;;13.20;89.13;100358.75;1731106;82;20982;-71
2022/10/25 01:04:10;;;;;;;6.40;3.33;;;;;;;13.23;89.29;100351.55;1730760;82;21024;-72
2022/10/25 01:06:48;;;;;;;7.95;3.00;;;;;;;13.27;89.37;100357.06;1730960;82;21053;-72
2022/10/25 01:09:26;;;;;;;5.70;3.08;;;;;;;13.36;89.59;100350.52;1730702;82;21004;-72
2022/10/25 01:11:53;;;;;;;5.87;2.55;;;;;;;13.46;89.59;100341.22;1730749;82;21031;-72
2022/10/25 01:14:21;;;;;;;8.35;2.70;;;;;;;13.52;89.50;100342.25;1730767;82;20990;-71
2022/10/25 01:17:12;;;;;;;6.05;3.05;;;;;;;13.59;89.52;100341.00;1730678;82;21004;-72
2022/10/25 01:20:16;;;;;;;9.20;3.10;;;;;;;13.68;89.49;100337.52;1730856;82;21127;-71
2022/10/25 01:22:51;;;;;;;7.97;3.12;;;;;;;13.77;89.40;100340.98;1729655;82;20996;-72
2022/10/25 01:25:39;;;;;;;6.55;2.67;;;;;;;13.82;89.17;100340.28;1730892;82;21060;-72
2022/10/25 01:28:16;;;;;;;4.55;2.50;;;;;;;13.87;89.09;100339.59;1729841;82;21024;-71
2022/10/25 01:31:07;;;;;;;6.53;3.45;;;;;;;13.92;89.06;100340.20;1729542;82;21043;-73
2022/10/25 01:34:15;;;;;;;8.43;3.10;;;;;;;13.95;88.88;100341.84;1702130;82;21349;-74
2022/10/25 01:37:02;;;;;;;5.42;2.52;;;;;;;13.99;88.87;100353.91;1671229;85;21039;-72
2022/10/25 01:39:46;;;;;;;6.42;2.80;;;;;;;14.06;88.82;100350.88;1670535;85;21102;-72
2022/10/25 01:42:25;;;;;;;9.50;3.02;;;;;;;14.10;88.61;100346.77;1671066;85;21540;-72
2022/10/25 01:45:14;;;;;;;7.12;2.50;;;;;;;14.10;88.46;100346.28;1640820;87;21101;-72
2022/10/25 01:47:54;;;;;;;6.15;2.67;;;;;;;14.14;88.42;100350.48;1635169;87;21134;-72
2022/10/25 01:50:28;;;;;;;;;;;;;;;14.16;88.33;100351.27;1634834;87;21070;-71
2022/10/25 01:52:56;;;;;;;4.92;2.55;;;;;;;14.21;88.34;100362.86;1682208;85;20455;-72
2022/10/25 01:55:34;;;;;;;6.35;2.20;;;;;;;14.24;88.29;100358.30;1635290;87;21051;-72
2022/10/25 01:58:19;;;;;;;7.85;2.60;;;;;;;14.29;88.20;100358.03;1632736;87;21491;-71
2022/10/25 02:01:24;;;;;;;7.67;2.80;;;;;;;14.32;88.09;100352.59;1632460;87;21097;-72
2022/10/25 02:03:59;;;;;;;5.62;2.77;;;;;;;14.39;88.06;100354.45;1632623;87;21114;-71
2022/10/25 02:06:50;;;;;;;6.75;2.70;;;;;;;14.44;87.83;100351.11;1632351;87;20961;-71
2022/10/25 02:09:38;;;;;;;4.78;2.30;;;;;;;14.45;87.58;100343.57;1631880;87;21498;-72
2022/10/25 02:12:09;;;;;;;5.90;2.47;;;;;;;14.46;87.46;100354.49;1688794;84;21041;-72
2022/10/25 02:14:39;;;;;;;6.47;2.45;;;;;;;14.46;87.35;100352.70;1689569;85;22035;-77
2022/10/25 02:17:14;;;;;;;5.95;2.58;;;;;;;14.49;87.25;100350.37;1689715;85;20926;-72
2022/10/25 02:19:46;;;;;;;3.90;1.92;;;;;;;14.48;87.11;100351.31;1687284;84;21487;-73
2022/10/25 02:22:14;;;;;;;5.70;2.47;;;;;;;14.49;87.05;100350.37;1689811;85;21025;-72
2022/10/25 02:24:45;;;;;;;5.72;2.40;;;;;;;14.52;87.09;100355.51;1689518;85;21552;-72
2022/10/25 02:27:13;;;;;;;6.20;2.20;;;;;;;14.58;87.13;100349.08;1689867;85;21062;-72
2022/10/25 02:29:41;;;;;;;4.28;2.17;;;;;;;14.62;86.89;100346.64;1689838;85;21037;-72
2022/10/25 02:32:09;;;;;;;5.12;2.08;;;;;;;14.62;86.73;100351.45;1689783;85;21084;-72
2022/10/25 02:34:36;;;;;;;5.70;2.15;;;;;;;14.63;86.60;100353.17;1689619;85;21510;-72
2022/10/25 02:37:03;;;;;;;4.85;2.20;;;;;;;14.66;86.63;100359.59;1689900;85;21045;-72
2022/10/25 02:39:32;;;;;;;4.67;1.90;;;;;;;14.67;86.42;100361.28;1689856;84;21116;-72
2022/10/25 02:42:03;;;;;;;6.22;2.12;;;;;;;14.70;86.34;100365.55;1689664;85;21041;-72
2022/10/25 02:44:30;;;;;;;10.48;2.12;;;;;;;14.71;86.22;100368.55;1689534;85;21028;-73
2022/10/25 02:46:58;;;;;;;4.78;2.00;;;;;;;14.69;86.06;100364.70;1689447;85;21041;-72
2022/10/25 02:49:25;;;;;;;5.03;2.37;;;;;;;14.70;86.06;100366.39;1689666;84;21423;-77
2022/10/25 02:51:52;;;;;;;5.55;2.42;;;;;;;14.68;85.93;100360.34;1689567;85;21494;-72
2022/10/25 02:54:19;;;;;;;5.08;2.35;;;;;;;14.67;85.83;100365.24;1689493;85;21013;-72
2022/10/25 02:56:51;;;;;;;4.25;1.90;;;;;;;14.66;85.77;100363.99;1689515;85;20997;-78
2022/10/25 02:59:15;;;;;;;4.37;1.87;;;;;;;14.62;85.67;100368.59;1689294;84;21040;-72
2022/10/25 03:01:42;;;;;;;6.83;2.10;;;;;;;14.61;85.71;100367.38;1690018;85;21009;-72
2022/10/25 03:04:10;;;;;;;6.05;1.90;;;;;;;14.59;85.70;100367.91;1689696;85;21195;-72
2022/10/25 03:06:39;;;;;;;4.78;2.08;;;;;;;14.57;85.66;100361.39;1689394;85;21017;-72
2022/10/25 03:09:07;;;;;;;7.17;2.22;;;;;;;14.55;85.62;100366.36;1689952;85;21009;-72
2022/10/25 03:11:34;;;;;;;6.03;2.20;;;;;;;14.53;85.59;100370.89;1689482;85;21554;-72
2022/10/25 03:14:02;;;;;;;8.03;2.30;;;;;;;14.48;85.57;100365.34;1690194;85;21099;-72
2022/10/25 03:16:29;;;;;;;4.67;2.12;;;;;;;14.46;85.59;100363.25;1689497;85;21052;-72
2022/10/25 03:18:58;;;;;;;7.75;2.33;;;;;;;14.43;85.53;100361.25;1689580;85;20992;-72
2022/10/25 03:21:25;;;;;;;9.08;2.00;;;;;;;14.40;85.49;100362.27;1689474;85;21028;-72
2022/10/25 03:23:54;;;;;;;5.28;2.15;;;;;;;14.34;85.53;100355.17;1689597;85;21002;-72
2022/10/25 03:26:20;;;;;;;5.62;2.50;;;;;;;14.30;85.53;100358.44;1689496;85;21518;-78
2022/10/25 03:28:47;;;;;;;5.37;2.62;;;;;;;14.26;85.51;100362.16;1689504;85;21933;-73
2022/10/25 03:31:17;;;;;;;6.62;2.47;;;;;;;14.19;85.50;100358.13;1689494;85;20993;-72
2022/10/25 03:33:44;;;;;;;6.15;2.33;;;;;;;14.13;85.50;100362.41;1689821;85;21041;-72
2022/10/25 03:36:11;;;;;;;5.25;2.42;;;;;;;14.05;85.51;100366.78;1689589;85;21021;-73
2022/10/25 03:38:39;;;;;;;5.40;2.40;;;;;;;13.97;85.61;100364.54;1689418;85;21593;-72
2022/10/25 03:41:06;;;;;;;4.83;2.15;;;;;;;13.92;85.70;100357.34;1690149;85;21229;-72
2022/10/25 03:43:34;;;;;;;4.97;2.27;;;;;;;13.88;85.81;100353.61;1689411;85;21550;-72
2022/10/25 03:46:01;;;;;;;5.50;2.27;;;;;;;13.82;85.84;100359.58;1689683;85;21013;-73
2022/10/25 03:48:28;;;;;;;4.78;2.00;;;;;;;13.78;86.00;100356.72;1689606;84;21045;-73
2022/10/25 03:50:56;;;;;;;5.97;2.40;;;;;;;13.76;86.11;100364.31;1690573;84;21593;-73
2022/10/25 03:53:23;;;;;;;6.62;2.58;;;;;;;13.73;86.18;100368.42;1690290;84;21931;-73
2022/10/25 03:55:50;;;;;;;7.40;2.60;;;;;;;13.68;86.26;100372.59;1690371;84;21487;-72
2022/10/25 03:58:18;;;;;;;6.47;2.70;;;;;;;13.65;86.26;100373.22;1690278;84;21533;-73
2022/10/25 04:00:45;;;;;;;5.92;2.80;;;;;;;13.58;86.25;100367.42;1690420;84;20957;-72
2022/10/25 04:03:12;;;;;;;7.12;2.87;;;;;;;13.52;86.22;100367.27;1690229;84;20997;-72
2022/10/25 04:05:39;;;;;;;6.47;2.40;;;;;;;13.47;86.28;100369.70;1690442;84;21270;-72
2022/10/25 04:08:07;;;;;;;4.28;2.47;;;;;;;13.40;86.42;100366.54;1690152;84;21006;-73
2022/10/25 04:10:35;;;;;;;6.05;2.42;;;;;;;13.36;86.72;100368.95;1690340;84;21014;-72
2022/10/25 04:13:02;;;;;;;6.58;3.10;;;;;;;13.36;86.87;100370.27;1690547;84;21573;-73
2022/10/25 04:15:30;;;;;;;8.10;2.87;;;;;;;13.35;87.06;100373.34;1690215;84;21021;-73
2022/10/25 04:17:57;;;;;;;5.70;2.50;;;;;;;13.35;87.05;100376.44;1690279;84;22107;-72
2022/10/25 04:20:24;;;;;;;5.62;2.50;;;;;;;13.32;87.06;100379.22;1690202;84;21005;-72
2022/10/25 04:22:55;;;;;;;8.18;2.90;;;;;;;13.31;87.24;100377.06;1690261;84;21064;-73
2022/10/25 04:25:25;;;;;;;7.65;2.87;;;;;;;13.31;87.34;100378.84;1690284;84;21038;-73
2022/10/25 04:27:54;;;;;;;6.00;2.47;;;;;;;13.32;87.63;100373.95;1690722;84;21489;-72
2022/10/25 04:30:21;;;;;;;5.28;2.62;;;;;;;13.36;87.63;100375.06;1690187;84;21102;-79
2022/10/25 04:32:48;;;;;;;7.08;2.33;;;;;;;13.39;87.80;100376.70;1690070;84;20969;-73
2022/10/25 04:35:16;;;;;;;6.00;2.52;;;;;;;13.44;87.87;100375.13;1690184;84;21491;-72
2022/10/25 04:37:43;;;;;;;6.33;2.83;;;;;;;13.44;87.82;100377.33;1690177;84;21036;-72
2022/10/25 04:40:11;;;;;;;8.93;2.90;;;;;;;13.48;87.77;100370.13;1690262;84;21490;-72
2022/10/25 04:42:39;;;;;;;7.08;2.70;;;;;;;13.46;87.68;100368.86;1690477;84;21514;-72
2022/10/25 04:45:07;;;;;;;5.03;2.10;;;;;;;13.47;87.65;100377.61;1690174;84;21486;-73
2022/10/25 04:47:35;;;;;;;8.10;2.40;;;;;;;13.48;87.72;100371.44;1690407;84;21014;-73
2022/10/25 04:50:02;;;;;;;4.50;2.33;;;;;;;13.46;87.52;100378.55;1689686;84;21037;-72
2022/10/25 04:52:31;;;;;;;5.78;2.35;;;;;;;13.41;87.44;100374.81;1689430;85;21522;-72
2022/10/25 04:54:58;;;;;;;8.18;2.60;;;;;;;13.37;87.38;100374.12;1689398;85;21966;-72
2022/10/25 04:57:25;;;;;;;7.35;2.37;;;;;;;13.33;87.38;100381.80;1689341;85;21555;-72
2022/10/25 04:59:55;;;;;;;5.28;2.25;;;;;;;13.30;87.39;100383.70;1689493;85;21048;-72
2022/10/25 05:02:25;;;;;;;6.58;2.77;;;;;;;13.24;87.29;100386.61;1689599;85;21551;-72
2022/10/25 05:04:52;;;;;;;;;;;;;;;13.20;87.40;100387.23;1692229;85;21545;-72
2022/10/25 05:07:20;;;;;;;5.03;2.30;;;;;;;13.12;87.40;100386.27;1689640;85;22095;-73
2022/10/25 05:09:47;;;;;;;4.00;2.55;;;;;;;13.05;87.34;100384.88;1689489;85;21491;-72
2022/10/25 05:12:15;;;;;;;7.55;2.70;;;;;;;12.99;87.39;100386.45;1689636;85;21032;-72
2022/10/25 05:14:43;;;;;;;9.58;2.65;;;;;;;12.92;87.41;100389.00;1689645;85;21081;-72
2022/10/25 05:17:10;;;;;;;8.35;3.02;;;;;;;12.86;87.54;100387.52;1689580;85;21104;-72
2022/10/25 05:19:38;;;;;;;6.45;2.92;;;;;;;12.81;87.71;100385.55;1689887;85;21122;-72
2022/10/25 05:22:05;;;;;;;5.58;2.47;;;;;;;12.77;87.80;100393.18;1689578;85;21013;-72
2022/10/25 05:24:33;;;;;;;5.35;2.75;;;;;;;12.75;88.01;100387.59;1689893;85;21492;-72
2022/10/25 05:27:00;;;;;;;5.17;2.35;;;;;;;12.73;88.23;100393.80;1689607;85;21040;-72
2022/10/25 05:29:28;;;;;;;4.47;2.45;;;;;;;12.73;88.40;100393.80;1689888;85;21534;-73
2022/10/25 05:31:55;;;;;;;4.35;2.72;;;;;;;12.80;88.77;100390.88;1689558;85;21098;-72
2022/10/25 05:34:22;;;;;;;5.85;3.05;;;;;;;12.88;88.90;100400.58;1689763;85;21503;-73
2022/10/25 05:36:51;;;;;;;5.47;2.67;;;;;;;12.92;88.88;100401.69;1689716;85;21041;-72
2022/10/25 05:39:18;;;;;;;5.45;2.62;;;;;;;12.96;88.79;100405.02;1689886;85;21033;-73
2022/10/25 05:41:45;;;;;;;9.68;3.35;;;;;;;13.00;88.90;100405.28;1689539;85;21092;-73
2022/10/25 05:44:13;;;;;;;5.87;2.42;;;;;;;13.06;88.94;100417.30;1689866;85;21157;-73
2022/10/25 05:46:41;;;;;;;8.43;2.47;;;;;;;13.14;89.10;100412.53;1689409;85;21530;-72
2022/10/25 05:49:10;;;;;;;5.72;2.55;;;;;;;13.20;89.04;100414.02;1689623;84;21478;-72
2022/10/25 05:51:37;;;;;;;4.95;2.22;;;;;;;13.28;89.09;100413.22;1689572;85;21491;-73
2022/10/25 05:54:09;;;;;;;5.85;2.00;;;;;;;13.36;89.17;100421.60;1689963;85;21013;-72
2022/10/25 05:56:37;;;;;;;8.23;2.70;;;;;;;13.45;89.11;100426.41;1688909;85;21507;-73
2022/10/25 05:59:08;;;;;;;8.10;2.72;;;;;;;13.57;89.15;100423.64;1689695;85;21529;-73
2022/10/25 06:01:39;;;;;;;9.05;2.10;;;;;;;13.65;88.96;100423.27;1689640;85;21521;-73
2022/10/25 06:04:07;;;;;;;5.35;2.25;;;;;;;13.75;88.91;100427.16;1689881;85;21033;-73
2022/10/25 06:06:37;;;;;;;4.97;1.92;;;;;;;13.81;88.67;100430.33;1689561;85;21535;-73
2022/10/25 06:09:06;;;;;;;6.87;2.17;;;;;;;13.87;88.54;100425.22;1689632;85;21987;-72
2022/10/25 06:11:34;;;;;;;5.92;1.90;;;;;;;13.94;88.43;100425.31;1689793;85;21009;-72
2022/10/25 06:14:02;;;;;;;7.03;2.15;;;;;;;14.02;88.41;100432.36;1689613;85;21415;-72
2022/10/25 06:16:29;;;;;;;3.62;1.92;;;;;;;14.10;88.22;100431.95;1689769;85;21013;-73
2022/10/25 06:18:57;;;;;;;6.47;1.80;;;;;;;14.20;88.11;100446.84;1689540;85;21054;-73
2022/10/25 06:21:28;;;;;;;3.52;1.80;;;;;;;14.28;87.94;100445.98;1689498;85;21956;-72
2022/10/25 06:23:57;;;;;;;9.10;2.00;;;;;;;14.36;87.88;100444.28;1689569;85;21013;-72
2022/10/25 06:26:27;;;;;;;4.08;1.98;;;;;;;14.44;87.67;100442.94;1689761;85;21442;-72
2022/10/25 06:28:58;;;;;;;6.85;2.17;;;;;;;14.50;87.55;100454.48;1689520;85;21017;-73
2022/10/25 06:31:28;;;;;;;3.65;1.72;;;;;;;14.60;87.39;100453.55;1689669;85;21029;-73
2022/10/25 06:33:55;;;;;;;3.80;1.77;;;;;;;14.66;87.14;100455.00;1689853;85;21132;-73
2022/10/25 06:36:23;;;;;;;4.85;1.80;;;;;;;14.70;86.90;100460.05;1689765;85;21014;-72
2022/10/25 06:38:51;;;;;;;6.58;1.92;;;;;;;14.73;86.75;100455.92;1689468;85;21502;-73
2022/10/25 06:41:26;;;;;;;8.30;1.77;;;;;;;14.77;86.55;100464.55;1689513;85;21032;-72
2022/10/25 06:43:54;;;;;;;4.40;1.98;;;;;;;14.82;86.41;100462.96;1689532;85;21028;-73
2022/10/25 06:46:28;;;;;;;7.05;1.82;;;;;;;14.85;86.24;100466.75;1689474;85;21313;-73
2022/10/25 06:48:58;;;;;;;4.40;1.67;;;;;;;14.84;86.04;100467.22;1689685;85;21486;-72
2022/10/25 06:51:28;;;;;;;4.70;1.77;;;;;;;14.86;85.85;100464.52;1665872;85;21495;-72
2022/10/25 06:53:57;;;;;;;6.03;1.92;;;;;;;14.85;85.75;100468.07;1727761;83;21435;-72
2022/10/25 06:56:28;;;;;;;7.83;1.92;;;;;;;14.84;85.58;100472.50;1727799;82;20984;-73
2022/10/25 06:58:55;;;;;;;6.72;1.70;;;;;;;14.84;85.56;100483.53;1727700;83;21776;-72
2022/10/25 07:01:24;;;;;;;6.92;2.17;;;;;;;14.83;85.44;100481.84;1727511;83;20872;-72
2022/10/25 07:03:53;;;;;;;8.00;1.90;;;;;;;14.84;85.36;100480.89;1727828;83;21010;-73
2022/10/25 07:06:28;;;;;;;6.33;2.00;;;;;;;14.83;85.26;100478.73;1727675;83;21019;-72
2022/10/25 07:08:59;;;;;;;4.83;1.72;;;;;;;14.83;85.22;100481.37;1727435;82;21443;-72
2022/10/25 07:11:29;;;;;;;5.10;1.92;;;;;;;14.86;85.19;100481.67;1727699;83;21095;-72
2022/10/25 07:13:57;;;;;;;;;;;;;;;14.87;85.13;100481.57;1730501;83;21021;-73
2022/10/25 07:16:27;;;;;;;5.58;1.82;;;;;;;14.87;85.17;100485.53;1727697;83;20135;-73
2022/10/25 07:19:01;;;;;;;4.33;1.40;;;;;;;14.89;85.24;100486.31;1727707;83;20987;-73
2022/10/25 07:21:32;;;;;;;7.62;1.95;;;;;;;14.92;85.28;100489.25;1726876;82;21057;-72
2022/10/25 07:23:59;;;;;;;4.28;1.55;;;;;;;14.95;85.28;100497.84;1727830;83;21079;-72
2022/10/25 07:26:31;;;;;;;7.42;2.25;;;;;;;14.98;85.25;100496.84;1727717;83;21069;-72
2022/10/25 07:29:00;;;;;;;4.83;1.90;;;;;;;15.04;85.12;100509.70;1727432;83;21268;-73
2022/10/25 07:31:34;;;;;;;4.65;1.65;;;;;;;15.09;85.18;100502.86;1727939;83;21026;-72
2022/10/25 07:34:04;;;;;;;7.05;2.00;;;;;;;15.12;85.01;100504.86;1727707;83;21014;-73
2022/10/25 07:36:33;;;;;;;4.47;1.50;;;;;;;15.14;84.80;100508.27;1727992;82;21200;-72
2022/10/25 07:39:00;;;;;;;5.45;1.60;;;;;;;15.18;84.73;100512.44;1727631;82;21018;-73
2022/10/25 07:41:28;;;;;;;4.40;2.05;;;;;;;15.22;84.70;100513.62;1727587;83;21018;-73
2022/10/25 07:43:56;;;;;;;5.05;1.82;;;;;;;15.28;84.69;100514.13;1727558;83;20999;-73
2022/10/25 07:46:23;;;;;;;4.62;1.45;;;;;;;15.32;84.59;100517.44;1727917;83;20990;-73
2022/10/25 07:48:53;;;;;;;5.25;1.85;;;;;;;15.34;84.37;100512.45;1727577;83;21134;-72
2022/10/25 07:51:20;;;;;;;4.17;1.50;;;;;;;15.36;84.22;100513.23;1747541;82;20977;-79
2022/10/25 07:53:48;;;;;;;4.97;1.87;;;;;;;15.41;84.23;100515.63;1751410;82;21064;-72
2022/10/25 07:56:18;;;;;;;3.70;1.95;;;;;;;15.41;84.23;100515.63;1751359;82;21514;-72
2022/10/25 07:58:46;;;;;;;4.87;1.72;;;;;;;15.42;83.95;100524.41;1751562;82;21160;-73
2022/10/25 08:01:20;;;;;;;4.65;1.85;;;;;;;15.44;83.91;100523.38;1730390;82;21861;-73
2022/10/25 08:03:48;;;;;;;10.35;1.90;;;;;;;15.46;83.86;100522.80;1751157;82;21005;-73
2022/10/25 08:06:15;;;;;;;3.72;1.50;;;;;;;15.54;83.78;100533.80;1751319;82;20993;-72
2022/10/25 08:08:42;;;;;;;3.37;1.52;;;;;;;15.70;83.49;100519.30;1751307;82;21020;-72
2022/10/25 08:11:10;;;;;;;4.70;1.37;;;;;;;15.70;83.49;100519.30;1751330;82;21032;-73
2022/10/25 08:13:39;;;;;;;4.25;1.62;;;;;;;15.76;83.56;100522.91;1751330;82;21513;-73
2022/10/25 08:16:07;;;;;;;3.98;1.55;;;;;;;15.90;83.45;100524.77;1751192;82;21535;-73
2022/10/25 08:18:35;;;;;;;5.45;1.75;;;;;;;15.95;83.12;100525.84;1751312;82;21049;-73
2022/10/25 08:21:03;;;;;;;5.60;1.60;;;;;;;16.06;82.91;100522.11;1751289;82;20993;-72
2022/10/25 08:23:31;;;;;;;4.70;1.50;;;;;;;16.06;82.91;100522.11;1751333;82;20989;-73
2022/10/25 08:26:01;;;;;;;4.40;1.67;;;;;;;16.13;82.61;100523.91;1751305;82;21969;-73
2022/10/25 08:28:30;;;;;;;5.17;1.77;;;;;;;16.20;82.41;100523.48;1751636;82;21016;-72
2022/10/25 08:30:59;;;;;;;5.35;1.60;;;;;;;16.29;82.14;100532.66;1751504;82;21546;-72
2022/10/25 08:33:26;;;;;;;5.53;1.57;;;;;;;16.35;82.02;100516.89;1751490;82;20989;-73
2022/10/25 08:35:53;;;;;;;4.08;1.30;;;;;;;16.42;81.67;100517.77;1751622;82;21025;-73
2022/10/25 08:38:20;;;;;;;2.90;1.35;;;;;;;16.46;81.37;100529.89;1751731;82;21071;-73
2022/10/25 08:41:22;;;;;;;4.47;1.47;;;;;;;16.50;81.12;100534.05;1751295;82;20993;-73
2022/10/25 08:44:20;;;;;;;3.95;1.45;;;;;;;16.54;80.99;100520.15;1751561;81;21008;-73
2022/10/25 08:47:08;;;;;;;7.53;1.70;;;;;;;16.62;80.90;100525.83;1751656;82;21028;-72
2022/10/25 08:49:52;;;;;;;3.37;1.35;;;;;;;16.69;80.73;100527.18;1751582;82;20985;-72
2022/10/25 08:52:39;;;;;;;3.98;1.20;;;;;;;16.71;80.31;100533.69;1751353;81;21086;-72
2022/10/25 08:55:16;;;;;;;5.67;1.90;;;;;;;16.69;80.08;100537.77;1751390;82;21002;-72
2022/10/25 08:57:45;;;;;;;3.45;1.27;;;;;;;16.73;80.14;100534.45;1749873;81;21025;-76
2022/10/25 09:00:19;;;;;;;4.28;1.20;;;;;;;16.80;80.17;100533.66;1751776;82;20993;-72
2022/10/25 09:02:58;;;;;;;5.17;1.60;;;;;;;16.82;79.99;100537.92;1751495;82;21028;-74
2022/10/25 09:06:01;;;;;;;5.67;1.45;;;;;;;16.80;79.71;100537.63;1751904;82;21079;-72
2022/10/25 09:08:56;;;;;;;5.70;1.50;;;;;;;16.78;79.79;100538.19;1749755;81;21698;-72
2022/10/25 09:11:55;;;;;;;5.28;1.52;;;;;;;16.72;79.31;100542.88;1751619;82;21020;-72
2022/10/25 09:14:57;;;;;;;7.37;1.65;;;;;;;16.67;79.30;100543.62;1751512;82;21021;-72
2022/10/25 09:17:43;;;;;;;4.37;1.57;;;;;;;16.65;79.10;100544.65;1750550;81;21017;-72
2022/10/25 09:20:34;;;;;;;4.45;1.40;;;;;;;16.65;79.09;100538.03;1751012;81;21225;-72
2022/10/25 09:23:27;;;;;;;4.60;1.27;;;;;;;16.74;79.11;100534.85;1751565;81;21004;-78
2022/10/25 09:26:21;;;;;;;5.72;1.50;;;;;;;16.99;79.33;100538.66;1726897;82;20989;-73
2022/10/25 09:28:56;;;;;;;3.10;1.17;;;;;;;17.30;79.43;100538.95;1751427;82;21072;-72
2022/10/25 09:31:29;;;;;;;5.55;1.17;;;;;;;17.60;79.12;100550.25;1733302;82;21053;-72
2022/10/25 09:34:01;;;;;;;5.35;1.80;;;;;;;17.90;78.94;100547.91;1730709;82;21139;-72
2022/10/25 09:36:33;;;;;;;5.42;1.75;;;;;;;17.99;77.97;100570.35;1751388;82;21017;-72
2022/10/25 09:39:04;;;;;;;4.80;1.47;;;;;;;17.98;77.18;100557.54;1751408;81;21017;-72
2022/10/25 09:41:41;;;;;;;8.05;1.87;;;;;;;18.11;77.18;100564.23;1730798;82;21040;-72
2022/10/25 09:44:29;;;;;;;5.60;1.32;;;;;;;18.13;76.19;100559.68;1751598;82;21324;-72
2022/10/25 09:47:39;;;;;;;7.40;1.92;;;;;;;18.13;75.92;100557.51;1751603;82;21128;-72
2022/10/25 09:50:30;;;;;;;4.92;1.47;;;;;;;18.15;76.05;100555.13;1750447;82;20990;-72
2022/10/25 09:53:14;;;;;;;7.25;1.95;;;;;;;18.44;75.84;100569.09;1729597;82;21101;-72
2022/10/25 09:55:57;;;;;;;4.90;1.30;;;;;;;18.47;74.84;100560.92;1735783;82;21006;-72
2022/10/25 09:58:36;;;;;;;5.83;1.87;;;;;;;18.44;74.72;100566.44;1735753;82;21017;-72
2022/10/25 10:01:21;;;;;;;4.45;1.70;;;;;;;18.45;74.27;100559.32;1735886;81;21771;-73
2022/10/25 10:03:49;;;;;;;6.20;1.60;;;;;;;18.54;74.59;100549.88;1735949;82;21013;-72
2022/10/25 10:06:27;;;;;;;7.25;1.65;;;;;;;18.83;74.64;100553.24;1735748;82;21439;-72
2022/10/25 10:09:06;;;;;;;7.10;1.30;;;;;;;19.12;74.42;100547.21;1735884;82;20990;-72
2022/10/25 10:11:35;;;;;;;5.25;1.47;;;;;;;19.26;73.83;100553.76;1735893;82;26938;-73
2022/10/25 10:14:13;;;;;;;6.28;1.37;;;;;;;19.19;73.25;100547.65;1735972;82;21290;-73
2022/10/25 10:16:50;;;;;;;6.22;1.42;;;;;;;19.09;73.04;100548.76;1734190;82;21501;-73
2022/10/25 10:19:21;;;;;;;3.42;1.25;;;;;;;19.00;72.92;100553.40;1735707;82;21519;-73
2022/10/25 10:22:01;;;;;;;7.47;1.95;;;;;;;18.82;72.78;100557.71;1735893;81;21509;-72
2022/10/25 10:24:34;;;;;;;4.85;1.70;;;;;;;18.64;72.25;100560.25;1735896;82;21026;-73
2022/10/25 10:27:21;;;;;;;3.77;1.12;;;;;;;18.46;72.28;100563.70;1735608;82;21122;-73
2022/10/25 10:30:01;;;;;;;4.25;1.12;;;;;;;18.23;71.99;100560.75;1733821;82;21068;-73
2022/10/25 10:32:36;;;;;;;;;;;;;;;18.06;72.27;100565.84;1738735;82;21065;-72
2022/10/25 10:35:26;;;;;;;5.45;1.17;;;;;;;17.86;71.99;100558.83;1735852;82;20174;-72
2022/10/25 10:38:21;;;;;;;4.85;1.40;;;;;;;17.65;72.35;100562.34;1736241;82;21022;-72
2022/10/25 10:41:14;;;;;;;7.72;1.37;;;;;;;17.51;72.80;100558.77;1736132;82;21919;-73
2022/10/25 10:43:41;;;;;;;4.75;1.00;;;;;;;17.47;73.12;100558.59;1735949;82;21010;-72
2022/10/25 10:46:15;;;;;;;3.27;1.35;;;;;;;17.51;73.33;100565.87;1735783;82;21006;-72
2022/10/25 10:48:45;;;;;;;5.35;1.10;;;;;;;17.53;73.46;100567.48;1735754;81;21022;-72
2022/10/25 10:51:14;;;;;;;;;;;;;;;17.66;73.63;100570.21;1725670;81;21075;-72
2022/10/25 10:53:43;;;;;;;5.62;1.30;;;;;;;17.75;73.53;100576.23;1761692;81;21202;-72
2022/10/25 10:56:15;;;;;;;3.37;1.40;;;;;;;17.75;73.53;100571.42;1761728;81;21589;-73
2022/10/25 10:58:48;;;;;;;3.80;1.10;;;;;;;17.76;73.57;100573.98;1761326;81;21375;-73
2022/10/25 11:01:32;;;;;;;6.40;1.12;;;;;;;17.79;73.49;100578.24;1761102;81;21016;-73
2022/10/25 11:04:00;;;;;;;3.85;0.82;;;;;;;17.78;73.28;100577.40;1762030;81;21274;-73
2022/10/25 11:06:34;;;;;;;3.22;0.93;;;;;;;17.82;73.39;100571.45;1761881;81;21136;-73
2022/10/25 11:09:16;;;;;;;3.87;1.10;;;;;;;17.83;73.38;100570.48;1761649;81;20902;-72
2022/10/25 11:11:47;;;;;;;3.02;0.95;;;;;;;17.86;73.25;100574.27;1761872;81;21060;-72
2022/10/25 11:14:16;;;;;;;6.87;1.25;;;;;;;17.84;73.26;100576.16;1729625;81;21024;-73
2022/10/25 11:16:57;;;;;;;4.10;1.27;;;;;;;17.84;73.23;100579.64;1762013;81;21067;-79
2022/10/25 11:19:48;;;;;;;5.00;0.98;;;;;;;17.76;73.05;100571.33;1761232;81;21284;-79
2022/10/25 11:22:35;;;;;;;3.77;1.00;;;;;;;17.67;73.03;100566.60;1760699;81;21028;-73
2022/10/25 11:25:14;;;;;;;3.93;1.20;;;;;;;17.66;73.14;100572.02;1762214;81;20983;-73
2022/10/25 11:28:35;;;;;;;3.72;1.17;;;;;;;17.69;73.44;100582.42;1761676;81;20986;-73
2022/10/25 11:31:49;;;;;;;7.17;1.45;;;;;;;17.74;73.38;100577.69;1761771;81;20985;-73
2022/10/25 11:34:39;;;;;;;4.28;1.12;;;;;;;17.99;73.69;100575.17;1761918;81;21775;-73
2022/10/25 11:37:20;;;;;;;4.65;1.00;;;;;;;18.53;73.52;100568.10;1762187;81;20985;-73
2022/10/25 11:40:05;;;;;;;2.95;0.98;;;;;;;18.71;73.23;100573.50;1761872;81;21061;-73
2022/10/25 11:43:15;;;;;;;3.22;0.93;;;;;;;18.78;72.79;100577.94;1757301;81;21072;-73
2022/10/25 11:45:47;;;;;;;2.58;1.00;;;;;;;18.86;72.68;100575.12;1761876;81;20977;-73
2022/10/25 11:48:37;;;;;;;2.92;1.20;;;;;;;18.87;72.27;100573.30;1761890;81;21819;-73
2022/10/25 11:51:32;;;;;;;6.03;1.45;;;;;;;19.00;72.30;100579.48;1759880;81;21461;-72
2022/10/25 11:54:37;;;;;;;2.70;1.00;;;;;;;19.23;72.36;100577.86;1738419;81;21013;-73
2022/10/25 11:57:15;;;;;;;6.03;1.20;;;;;;;19.56;72.37;100583.91;1752636;81;21060;-74